createdAt,value
2023-02-08T03:40:43.228Z,2.78
2023-02-08T03:43:26.426Z,2.74
2023-02-08T03:46:00.804Z,2.77
2023-02-08T03:48:29.470Z,2.80
2023-02-08T03:50:58.375Z,2.78
2023-02-08T03:53:27.309Z,2.77
2023-02-08T03:56:00.409Z,2.76
2023-02-08T03:58:34.445Z,2.77
2023-02-08T04:01:12.417Z,2.77
2023-02-08T04:03:40.543Z,2.79
2023-02-08T04:06:07.310Z,2.79
2023-02-08T04:08:33.940Z,2.80
2023-02-08T04:11:00.527Z,2.79
2023-02-08T04:13:27.104Z,2.79
2023-02-08T04:15:53.814Z,2.78
2023-02-08T04:18:20.402Z,2.78
2023-02-08T04:20:46.960Z,2.77
2023-02-08T04:23:13.466Z,2.77
2023-02-08T04:25:40.061Z,2.77
2023-02-08T04:28:06.625Z,2.77
2023-02-08T04:30:33.326Z,2.77
2023-02-08T04:33:00.209Z,2.76
2023-02-08T04:35:26.843Z,2.76
2023-02-08T04:37:53.404Z,2.74
2023-02-08T04:40:20.157Z,2.74
2023-02-08T04:42:46.706Z,2.73
2023-02-08T04:45:13.292Z,2.71
2023-02-08T04:47:39.818Z,2.71
2023-02-08T04:50:06.725Z,2.70
2023-02-08T04:52:33.319Z,2.69
2023-02-08T04:55:00.018Z,2.69
2023-02-08T04:57:26.634Z,2.67
2023-02-08T04:59:53.202Z,2.66
2023-02-08T05:02:20.117Z,2.66
2023-02-08T05:04:46.660Z,2.64
2023-02-08T05:07:13.229Z,2.62
2023-02-08T05:09:39.828Z,2.60
2023-02-08T05:12:06.507Z,2.59
2023-02-08T05:14:33.143Z,2.59
2023-02-08T05:16:59.752Z,2.58
2023-02-08T05:19:27.004Z,2.57
2023-02-08T05:21:53.564Z,2.57
2023-02-08T05:24:20.184Z,2.56
2023-02-08T05:26:46.741Z,2.55
2023-02-08T05:29:13.425Z,2.55
2023-02-08T05:31:40.132Z,2.55
2023-02-08T05:34:06.836Z,2.53
2023-02-08T05:36:33.595Z,2.54
2023-02-08T05:39:00.196Z,2.52
2023-02-08T05:41:26.868Z,2.51
2023-02-08T05:43:53.437Z,2.51
2023-02-08T05:46:20.126Z,2.51
2023-02-08T05:48:46.958Z,2.52
2023-02-08T05:51:13.553Z,2.52
2023-02-08T05:53:40.154Z,2.53
2023-02-08T05:56:07.071Z,2.51
2023-02-08T05:58:34.260Z,2.51
2023-02-08T06:01:00.983Z,2.50
2023-02-08T06:03:27.652Z,2.48
2023-02-08T06:05:54.275Z,2.48
2023-02-08T06:08:20.789Z,2.47
2023-02-08T06:10:57.176Z,2.46
2023-02-08T06:16:09.892Z,2.43
2023-02-08T06:18:36.558Z,2.42
2023-02-08T06:21:03.279Z,2.42
2023-02-08T06:23:30.335Z,2.40
2023-02-08T06:25:57.113Z,2.38
2023-02-08T06:28:23.631Z,2.37
2023-02-08T06:30:51.323Z,2.36
2023-02-08T06:33:18.892Z,2.36
2023-02-08T06:35:51.632Z,2.33
2023-02-08T06:38:18.563Z,2.35
2023-02-08T06:40:47.467Z,2.33
2023-02-08T06:43:14.378Z,2.32
2023-02-08T06:45:42.769Z,2.30
2023-02-08T06:48:09.377Z,2.30
2023-02-08T06:50:37.909Z,2.28
2023-02-08T06:53:04.723Z,2.28
2023-02-08T06:55:31.399Z,2.28
2023-02-08T06:57:57.988Z,2.28
2023-02-08T07:00:24.784Z,2.29
2023-02-08T07:02:52.562Z,2.28
2023-02-08T07:05:19.316Z,2.27
2023-02-08T07:07:45.912Z,2.25
2023-02-08T07:10:12.522Z,2.22
2023-02-08T07:12:39.083Z,2.21
2023-02-08T07:15:05.882Z,2.20
2023-02-08T07:17:32.602Z,2.19
2023-02-08T07:19:59.239Z,2.20
2023-02-08T07:22:25.695Z,2.20
2023-02-08T07:24:52.265Z,2.22
2023-02-08T07:27:18.911Z,2.25
2023-02-08T07:29:45.556Z,2.29
2023-02-08T07:32:12.288Z,2.33
2023-02-08T07:34:40.796Z,2.37
2023-02-08T07:37:08.272Z,2.41
2023-02-08T07:39:34.912Z,2.46
2023-02-08T07:42:01.500Z,2.50
2023-02-08T07:44:28.099Z,2.53
2023-02-08T07:46:55.001Z,2.56
2023-02-08T07:49:21.924Z,2.58
2023-02-08T07:51:48.506Z,2.60
2023-02-08T07:54:15.164Z,2.62
2023-02-08T07:56:41.857Z,2.64
2023-02-08T07:59:08.933Z,2.65
2023-02-08T08:01:35.627Z,2.66
2023-02-08T08:04:02.327Z,2.69
2023-02-08T08:06:28.919Z,2.70
2023-02-08T08:08:55.593Z,2.72
2023-02-08T08:11:22.334Z,2.74
2023-02-08T08:13:49.475Z,2.77
2023-02-08T08:16:16.689Z,2.79
2023-02-08T08:18:43.591Z,2.81
2023-02-08T08:21:10.741Z,2.86
2023-02-08T08:23:37.648Z,2.88
2023-02-08T08:26:08.601Z,2.90
2023-02-08T08:28:35.932Z,2.95
2023-02-08T08:31:02.775Z,2.98
2023-02-08T08:33:29.384Z,3.04
2023-02-08T08:35:55.960Z,3.08
2023-02-08T08:38:22.620Z,3.12
2023-02-08T08:40:49.223Z,3.18
2023-02-08T08:45:43.682Z,3.24
2023-02-08T08:48:10.710Z,3.29
2023-02-08T08:50:37.285Z,3.33
2023-02-08T08:53:03.777Z,3.38
2023-02-08T08:55:30.345Z,3.41
2023-02-08T08:57:56.836Z,3.45
2023-02-08T09:00:23.387Z,3.50
2023-02-08T09:02:49.895Z,3.55
2023-02-08T09:05:16.431Z,3.58
2023-02-08T09:07:42.947Z,3.63
2023-02-08T09:10:09.574Z,3.68
2023-02-08T09:12:36.516Z,3.72
2023-02-08T09:15:03.783Z,3.77
2023-02-08T09:17:30.284Z,3.83
2023-02-08T09:19:56.747Z,3.88
2023-02-08T09:22:23.306Z,3.94
2023-02-08T09:24:49.892Z,3.99
2023-02-08T09:27:18.876Z,4.05
2023-02-08T09:29:45.359Z,4.11
2023-02-08T09:32:11.874Z,4.16
2023-02-08T09:34:38.527Z,4.20
2023-02-08T09:37:06.680Z,4.26
2023-02-08T09:39:33.186Z,4.32
2023-02-08T09:42:21.216Z,4.34
2023-02-08T09:44:59.763Z,4.43
2023-02-08T09:47:35.898Z,4.47
2023-02-08T09:50:11.650Z,4.53
2023-02-08T09:52:50.533Z,4.59
2023-02-08T09:55:16.930Z,4.65
2023-02-08T09:57:45.707Z,4.72
2023-02-08T10:00:25.508Z,4.76
2023-02-08T10:02:54.857Z,4.85
2023-02-08T10:05:29.852Z,4.92
2023-02-08T10:07:58.482Z,5.01
2023-02-08T10:10:46.716Z,5.05
2023-02-08T10:13:41.382Z,5.15
2023-02-08T10:16:14.251Z,5.26
2023-02-08T10:19:10.944Z,5.33
2023-02-08T10:21:43.336Z,5.45
2023-02-08T10:24:37.811Z,5.52
2023-02-08T10:27:17.213Z,5.63
2023-02-08T10:29:52.629Z,5.74
2023-02-08T10:32:25.189Z,5.85
2023-02-08T10:35:00.012Z,5.93
2023-02-08T10:37:36.627Z,6.05
2023-02-08T10:40:18.474Z,6.16
2023-02-08T10:42:49.422Z,6.30
2023-02-08T10:45:30.110Z,6.42
2023-02-08T10:48:00.811Z,6.57
2023-02-08T10:50:39.083Z,6.70
2023-02-08T10:53:06.294Z,6.86
2023-02-08T10:55:38.293Z,6.99
2023-02-08T10:58:06.293Z,7.15
2023-02-08T11:00:36.737Z,7.28
2023-02-08T11:03:20.508Z,7.41
2023-02-08T11:05:47.365Z,7.60
2023-02-08T11:08:22.859Z,7.72
2023-02-08T11:11:04.801Z,7.86
2023-02-08T11:13:43.325Z,8.00
2023-02-08T11:16:13.116Z,8.19
2023-02-08T11:18:46.834Z,8.39
2023-02-08T11:21:24.134Z,8.64
2023-02-08T11:23:55.460Z,8.96
2023-02-08T11:26:30.846Z,9.33
2023-02-08T11:29:18.061Z,9.80
2023-02-08T11:32:25.074Z,10.26
2023-02-08T11:34:51.465Z,10.71
2023-02-08T11:37:23.326Z,11.00
2023-02-08T11:39:54.336Z,11.31
2023-02-08T11:42:41.926Z,11.63
2023-02-08T11:45:19.203Z,12.07
2023-02-08T11:47:48.159Z,12.64
2023-02-08T11:50:25.383Z,13.29
2023-02-08T11:52:57.752Z,14.05
2023-02-08T11:55:27.212Z,14.86
2023-02-08T11:57:58.488Z,15.68
2023-02-08T12:00:28.155Z,16.50
2023-02-08T12:03:00.840Z,17.29
2023-02-08T12:05:44.876Z,18.07
2023-02-08T12:08:30.406Z,18.82
2023-02-08T12:11:11.785Z,19.54
2023-02-08T12:14:00.170Z,20.15
2023-02-08T12:16:36.686Z,20.71
2023-02-08T12:19:41.585Z,21.22
2023-02-08T12:22:16.813Z,21.73
2023-02-08T12:25:21.806Z,22.07
2023-02-08T12:28:01.584Z,22.46
2023-02-08T12:30:34.225Z,22.71
2023-02-08T12:33:06.874Z,22.88
2023-02-08T12:35:57.643Z,23.17
2023-02-08T12:39:26.665Z,23.44
2023-02-08T12:41:55.778Z,23.73
2023-02-08T12:44:34.135Z,24.07
2023-02-08T12:47:28.535Z,24.25
2023-02-08T12:50:01.121Z,24.52
2023-02-08T12:52:33.697Z,24.68
2023-02-08T12:55:06.387Z,24.91
2023-02-08T12:57:33.226Z,24.94
2023-02-08T13:00:05.640Z,24.96
2023-02-08T13:02:46.168Z,24.78
2023-02-08T13:05:21.613Z,24.37
2023-02-08T13:07:51.504Z,23.97
2023-02-08T13:10:31.735Z,23.40
2023-02-08T13:13:19.241Z,22.71
2023-02-08T13:15:49.000Z,22.16
2023-02-08T13:18:30.964Z,21.37
2023-02-08T13:21:01.996Z,20.80
2023-02-08T13:23:50.568Z,20.19
2023-02-08T13:26:27.535Z,19.63
2023-02-08T13:28:57.563Z,19.19
2023-02-08T13:31:31.429Z,18.71
2023-02-08T13:34:03.700Z,18.26
2023-02-08T13:36:37.146Z,17.82
2023-02-08T13:39:07.519Z,17.39
2023-02-08T13:41:35.979Z,17.02
2023-02-08T13:44:07.385Z,16.75
2023-02-08T13:46:49.023Z,16.48
2023-02-08T13:49:40.764Z,16.34
2023-02-08T13:52:45.276Z,16.26
2023-02-08T13:55:28.871Z,16.21
2023-02-08T13:57:57.626Z,16.25
2023-02-08T14:00:24.120Z,16.26
2023-02-08T14:03:15.146Z,16.22
2023-02-08T14:06:01.440Z,16.30
2023-02-08T14:08:40.174Z,16.37
2023-02-08T14:11:26.981Z,16.54
2023-02-08T14:14:15.754Z,16.77
2023-02-08T14:17:06.889Z,17.01
2023-02-08T14:19:42.499Z,17.27
2023-02-08T14:22:12.971Z,17.57
2023-02-08T14:24:48.011Z,17.90
2023-02-08T14:27:30.996Z,18.33
2023-02-08T14:29:59.671Z,18.86
2023-02-08T14:32:30.076Z,19.42
2023-02-08T14:35:07.294Z,20.02
2023-02-08T14:37:35.851Z,20.65
2023-02-08T14:40:23.602Z,21.24
2023-02-08T14:43:06.471Z,21.80
2023-02-08T14:48:10.126Z,22.67
2023-02-08T14:50:41.397Z,23.03
2023-02-08T14:53:13.730Z,23.39
2023-02-08T14:55:59.717Z,23.68
2023-02-08T14:58:30.064Z,24.00
2023-02-08T15:00:59.966Z,24.16
2023-02-08T15:03:30.139Z,24.15
2023-02-08T15:06:35.051Z,24.06
2023-02-08T15:09:02.072Z,23.99
2023-02-08T15:11:32.261Z,23.86
2023-02-08T15:14:01.440Z,23.64
2023-02-08T15:16:43.756Z,23.21
2023-02-08T15:19:38.691Z,22.60
2023-02-08T15:22:18.444Z,21.70
2023-02-08T15:24:53.325Z,20.85
2023-02-08T15:27:24.823Z,19.99
2023-02-08T15:29:51.569Z,19.06
2023-02-08T15:32:24.579Z,18.12
2023-02-08T15:34:53.708Z,17.32
2023-02-08T15:37:20.973Z,16.57
2023-02-08T15:39:53.307Z,15.73
2023-02-08T15:42:25.851Z,15.05
2023-02-08T15:44:53.040Z,14.44
2023-02-08T15:47:29.912Z,13.82
2023-02-08T15:49:57.784Z,13.37
2023-02-08T15:52:28.416Z,12.93
2023-02-08T15:54:55.216Z,12.56
2023-02-08T15:57:45.649Z,12.11
2023-02-08T16:00:29.951Z,11.80
2023-02-08T16:03:05.710Z,11.58
2023-02-08T16:05:33.386Z,11.36
2023-02-08T16:08:00.871Z,11.20
2023-02-08T16:10:44.018Z,10.98
2023-02-08T16:13:24.396Z,10.94
2023-02-08T16:16:03.755Z,10.89
2023-02-08T16:18:46.274Z,10.79
2023-02-08T16:21:19.702Z,10.72
2023-02-08T16:23:52.000Z,10.67
2023-02-08T16:26:23.783Z,10.60
2023-02-08T16:29:02.521Z,10.48
2023-02-08T16:31:31.468Z,10.41
2023-02-08T16:34:04.818Z,10.28
2023-02-08T16:36:35.735Z,10.17
2023-02-08T16:39:40.010Z,9.98
2023-02-08T16:42:20.751Z,9.83
2023-02-08T16:45:12.543Z,9.65
2023-02-08T16:47:45.943Z,9.55
2023-02-08T16:50:16.990Z,9.38
2023-02-08T16:52:43.597Z,9.26
2023-02-08T16:55:22.724Z,9.08
2023-02-08T16:57:52.677Z,8.99
2023-02-08T17:00:23.088Z,8.88
2023-02-08T17:02:50.649Z,8.79
2023-02-08T17:05:19.397Z,8.70
2023-02-08T17:07:46.288Z,8.62
2023-02-08T17:10:31.621Z,8.50
2023-02-08T17:13:21.558Z,8.45
2023-02-08T17:15:47.901Z,8.33
2023-02-08T17:18:14.625Z,8.23
2023-02-08T17:20:41.247Z,8.11
2023-02-08T17:23:07.851Z,8.01
2023-02-08T17:25:35.142Z,7.91
2023-02-08T17:28:08.776Z,7.80
2023-02-08T17:30:38.599Z,7.73
2023-02-08T17:33:06.627Z,7.66
2023-02-08T17:35:34.120Z,7.60
2023-02-08T17:38:00.677Z,7.55
2023-02-08T17:40:32.710Z,7.50
2023-02-08T17:43:04.105Z,7.47
2023-02-08T17:45:31.486Z,7.45
2023-02-08T17:48:01.100Z,7.38
2023-02-08T17:50:27.996Z,7.35
2023-02-08T17:52:55.633Z,7.32
2023-02-08T17:55:22.666Z,7.28
2023-02-08T17:57:49.188Z,7.26
2023-02-08T18:00:19.245Z,7.23
2023-02-08T18:02:48.424Z,7.22
2023-02-08T18:05:17.490Z,7.22
2023-02-08T18:07:44.165Z,7.22
2023-02-08T18:10:12.629Z,7.19
2023-02-08T18:12:39.345Z,7.19
2023-02-08T18:15:08.005Z,7.16
2023-02-08T18:17:34.527Z,7.14
2023-02-08T18:20:01.040Z,7.12
2023-02-08T18:22:28.293Z,7.09
2023-02-08T18:24:55.246Z,7.08
2023-02-08T18:27:22.920Z,7.03
2023-02-08T18:29:49.507Z,7.02
2023-02-08T18:32:16.040Z,7.00
2023-02-08T18:34:43.108Z,6.98
2023-02-08T18:37:10.053Z,6.95
2023-02-08T18:39:36.674Z,6.92
2023-02-08T18:42:03.146Z,6.90
2023-02-08T18:44:29.887Z,6.88
2023-02-08T18:46:56.493Z,6.85
2023-02-08T18:49:23.735Z,6.84
2023-02-08T18:51:50.240Z,6.81
2023-02-08T18:54:17.850Z,6.78
2023-02-08T18:56:45.051Z,6.76
2023-02-08T18:59:12.783Z,6.73
2023-02-08T19:01:39.649Z,6.73
2023-02-08T19:04:06.208Z,6.70
2023-02-08T19:06:36.651Z,6.66
2023-02-08T19:09:07.347Z,6.62
2023-02-08T19:11:36.950Z,6.60
2023-02-08T19:14:10.319Z,6.56
2023-02-08T19:16:37.372Z,6.53
2023-02-08T19:19:05.912Z,6.48
2023-02-08T19:21:34.105Z,6.43
2023-02-08T19:24:02.135Z,6.40
2023-02-08T19:26:32.683Z,6.36
2023-02-08T19:29:03.254Z,6.33
2023-02-08T19:31:30.776Z,6.32
2023-02-08T19:33:59.582Z,6.29
2023-02-08T19:36:33.032Z,6.25
2023-02-08T19:39:01.339Z,6.24
2023-02-08T19:41:33.228Z,6.20
2023-02-08T19:44:00.846Z,6.19
2023-02-08T19:46:27.964Z,6.15
2023-02-08T19:48:57.024Z,6.12
2023-02-08T19:51:23.602Z,6.09
2023-02-08T19:53:50.082Z,6.06
2023-02-08T19:56:18.785Z,6.02
2023-02-08T19:58:47.972Z,6.00
2023-02-08T20:01:22.362Z,5.95
2023-02-08T20:03:50.425Z,5.94
2023-02-08T20:06:19.876Z,5.92
2023-02-08T20:08:47.361Z,5.89
2023-02-08T20:11:23.604Z,5.84
2023-02-08T20:13:50.775Z,5.83
2023-02-08T20:16:19.546Z,5.79
2023-02-08T20:18:46.604Z,5.77
2023-02-08T20:21:13.281Z,5.75
2023-02-08T20:23:40.470Z,5.72
2023-02-08T20:26:13.473Z,5.67
2023-02-08T20:28:41.497Z,5.68
2023-02-08T20:31:10.270Z,5.69
2023-02-08T20:33:37.023Z,5.64
2023-02-08T20:36:12.942Z,5.59
2023-02-08T20:38:39.968Z,5.58
2023-02-08T20:41:10.083Z,5.54
2023-02-08T20:43:37.443Z,5.52
2023-02-08T20:46:15.906Z,5.41
2023-02-08T20:48:42.409Z,5.38
2023-02-08T20:51:15.404Z,5.31
2023-02-08T20:53:43.006Z,5.27
2023-02-08T20:56:12.820Z,5.26
2023-02-08T20:58:39.813Z,5.21
2023-02-08T21:01:12.525Z,5.16
2023-02-08T21:03:39.078Z,5.16
2023-02-08T21:06:15.133Z,5.11
2023-02-08T21:08:42.860Z,5.09
2023-02-08T21:11:10.630Z,5.04
2023-02-08T21:13:38.065Z,4.97
2023-02-08T21:16:09.317Z,4.87
2023-02-08T21:18:36.618Z,4.79
2023-02-08T21:21:04.503Z,4.71
2023-02-08T21:23:31.843Z,4.64
2023-02-08T21:25:59.368Z,4.57
2023-02-08T21:28:26.067Z,4.51
2023-02-08T21:31:00.895Z,4.42
2023-02-08T21:33:28.224Z,4.38
2023-02-08T21:35:55.096Z,4.34
2023-02-08T21:38:21.820Z,4.28
2023-02-08T21:40:48.296Z,4.24
2023-02-08T21:43:14.943Z,4.19
2023-02-08T21:45:41.557Z,4.15
2023-02-08T21:48:08.067Z,4.12
2023-02-08T21:50:53.141Z,4.09
2023-02-08T21:53:37.972Z,4.05
2023-02-08T21:56:04.732Z,4.03
2023-02-08T21:58:31.215Z,4.00
2023-02-08T22:00:57.800Z,3.97
2023-02-08T22:03:24.336Z,3.94
2023-02-08T22:06:09.409Z,3.91
2023-02-08T22:08:36.605Z,3.87
2023-02-08T22:11:08.030Z,3.84
2023-02-08T22:13:35.442Z,3.81
2023-02-08T22:16:07.401Z,3.73
2023-02-08T22:18:33.891Z,3.71
2023-02-08T22:21:00.396Z,3.69
2023-02-08T22:23:26.901Z,3.64
2023-02-08T22:25:53.373Z,3.60
2023-02-08T22:28:19.918Z,3.59
2023-02-08T22:30:50.353Z,3.54
2023-02-08T22:33:17.003Z,3.52
2023-02-08T22:35:43.484Z,3.50
2023-02-08T22:38:09.981Z,3.46
2023-02-08T22:40:36.617Z,3.44
2023-02-08T22:43:03.171Z,3.41
2023-02-08T22:45:29.766Z,3.37
2023-02-08T22:47:56.180Z,3.34
2023-02-08T22:50:22.733Z,3.30
2023-02-08T22:52:49.212Z,3.28
2023-02-08T22:55:15.689Z,3.26
2023-02-08T22:57:43.458Z,3.23
2023-02-08T23:00:10.753Z,3.21
2023-02-08T23:02:37.301Z,3.18
2023-02-08T23:05:03.926Z,3.15
2023-02-08T23:07:30.492Z,3.13
2023-02-08T23:09:57.151Z,3.11
2023-02-08T23:12:23.615Z,3.09
2023-02-08T23:14:51.007Z,3.09
2023-02-08T23:17:17.512Z,3.10
2023-02-08T23:19:44.203Z,3.10
2023-02-08T23:22:10.808Z,3.11
2023-02-08T23:24:37.443Z,3.13
2023-02-08T23:27:04.017Z,3.13
2023-02-08T23:29:30.661Z,3.12
2023-02-08T23:31:57.192Z,3.10
2023-02-08T23:34:23.724Z,3.09
2023-02-08T23:36:50.259Z,3.08
2023-02-08T23:39:16.752Z,3.05
2023-02-08T23:41:43.249Z,3.02
2023-02-08T23:44:09.833Z,2.98
2023-02-08T23:46:36.331Z,2.97
2023-02-08T23:49:02.949Z,2.94
2023-02-08T23:51:29.439Z,2.92
2023-02-08T23:53:56.008Z,2.88
2023-02-08T23:56:27.697Z,2.83
2023-02-08T23:58:56.332Z,2.83
